sensor_id;sensor_type;location;lat;lon;timestamp;P1;durP1;ratioP1;P2;durP2;ratioP2
24685;SDS011;12804;51.176;4.452;2022-12-19T00:02:05;42.38;;;19.10;;
24685;SDS011;12804;51.176;4.452;2022-12-19T00:04:31;40.90;;;20.38;;
24685;SDS011;12804;51.176;4.452;2022-12-19T00:06:57;42.97;;;20.50;;
24685;SDS011;12804;51.176;4.452;2022-12-19T00:09:23;38.75;;;18.90;;
24685;SDS011;12804;51.176;4.452;2022-12-19T00:11:50;46.55;;;20.98;;
24685;SDS011;12804;51.176;4.452;2022-12-19T00:14:16;42.70;;;19.75;;
24685;SDS011;12804;51.176;4.452;2022-12-19T00:16:42;39.75;;;19.00;;
24685;SDS011;12804;51.176;4.452;2022-12-19T00:19:09;40.28;;;19.88;;
24685;SDS011;12804;51.176;4.452;2022-12-19T00:21:35;38.55;;;18.40;;
24685;SDS011;12804;51.176;4.452;2022-12-19T00:24:02;28.35;;;15.82;;
24685;SDS011;12804;51.176;4.452;2022-12-19T00:26:30;30.42;;;16.83;;
24685;SDS011;12804;51.176;4.452;2022-12-19T00:28:58;35.10;;;17.13;;
24685;SDS011;12804;51.176;4.452;2022-12-19T00:31:27;30.52;;;15.98;;
24685;SDS011;12804;51.176;4.452;2022-12-19T00:33:55;29.58;;;15.50;;
24685;SDS011;12804;51.176;4.452;2022-12-19T00:36:22;29.75;;;15.30;;
24685;SDS011;12804;51.176;4.452;2022-12-19T00:38:50;28.48;;;14.80;;
24685;SDS011;12804;51.176;4.452;2022-12-19T00:41:18;34.22;;;16.45;;
24685;SDS011;12804;51.176;4.452;2022-12-19T00:43:45;30.73;;;15.32;;
24685;SDS011;12804;51.176;4.452;2022-12-19T00:46:15;28.98;;;15.20;;
24685;SDS011;12804;51.176;4.452;2022-12-19T00:48:41;29.65;;;14.63;;
24685;SDS011;12804;51.176;4.452;2022-12-19T00:51:09;26.63;;;14.48;;
24685;SDS011;12804;51.176;4.452;2022-12-19T00:53:40;30.02;;;15.55;;
24685;SDS011;12804;51.176;4.452;2022-12-19T00:56:07;29.20;;;14.57;;
24685;SDS011;12804;51.176;4.452;2022-12-19T00:58:35;26.65;;;14.55;;
24685;SDS011;12804;51.176;4.452;2022-12-19T01:01:05;28.27;;;14.30;;
24685;SDS011;12804;51.176;4.452;2022-12-19T01:03:37;28.25;;;14.75;;
24685;SDS011;12804;51.176;4.452;2022-12-19T01:06:03;30.65;;;15.73;;
24685;SDS011;12804;51.176;4.452;2022-12-19T01:08:29;29.25;;;16.00;;
24685;SDS011;12804;51.176;4.452;2022-12-19T01:10:55;29.95;;;15.55;;
24685;SDS011;12804;51.176;4.452;2022-12-19T01:13:22;33.88;;;16.35;;
24685;SDS011;12804;51.176;4.452;2022-12-19T01:15:49;30.13;;;15.02;;
24685;SDS011;12804;51.176;4.452;2022-12-19T01:18:14;27.60;;;14.82;;
24685;SDS011;12804;51.176;4.452;2022-12-19T01:20:41;33.72;;;16.33;;
24685;SDS011;12804;51.176;4.452;2022-12-19T01:23:09;30.13;;;15.70;;
24685;SDS011;12804;51.176;4.452;2022-12-19T01:25:36;30.92;;;15.27;;
24685;SDS011;12804;51.176;4.452;2022-12-19T01:28:03;27.92;;;15.23;;
24685;SDS011;12804;51.176;4.452;2022-12-19T01:30:31;30.30;;;15.45;;
24685;SDS011;12804;51.176;4.452;2022-12-19T01:32:57;32.83;;;16.38;;
24685;SDS011;12804;51.176;4.452;2022-12-19T01:35:25;29.75;;;14.95;;
24685;SDS011;12804;51.176;4.452;2022-12-19T01:37:52;27.65;;;15.27;;
24685;SDS011;12804;51.176;4.452;2022-12-19T01:40:19;28.55;;;15.27;;
24685;SDS011;12804;51.176;4.452;2022-12-19T01:42:46;30.15;;;15.40;;
24685;SDS011;12804;51.176;4.452;2022-12-19T01:50:20;26.52;;;14.80;;
24685;SDS011;12804;51.176;4.452;2022-12-19T01:52:51;22.85;;;13.50;;
24685;SDS011;12804;51.176;4.452;2022-12-19T01:55:18;26.13;;;13.90;;
24685;SDS011;12804;51.176;4.452;2022-12-19T01:57:45;27.23;;;13.63;;
24685;SDS011;12804;51.176;4.452;2022-12-19T02:00:11;26.67;;;13.85;;
24685;SDS011;12804;51.176;4.452;2022-12-19T02:02:45;24.98;;;13.57;;
24685;SDS011;12804;51.176;4.452;2022-12-19T02:05:18;25.50;;;12.80;;
24685;SDS011;12804;51.176;4.452;2022-12-19T02:07:44;23.00;;;14.02;;
24685;SDS011;12804;51.176;4.452;2022-12-19T02:10:10;23.17;;;12.20;;
24685;SDS011;12804;51.176;4.452;2022-12-19T02:12:38;24.77;;;13.63;;
24685;SDS011;12804;51.176;4.452;2022-12-19T02:15:08;27.08;;;13.75;;
24685;SDS011;12804;51.176;4.452;2022-12-19T02:17:53;25.23;;;13.90;;
24685;SDS011;12804;51.176;4.452;2022-12-19T02:42:11;19.42;;;12.05;;
24685;SDS011;12804;51.176;4.452;2022-12-19T02:44:44;20.80;;;12.73;;
24685;SDS011;12804;51.176;4.452;2022-12-19T02:47:14;13.68;;;8.75;;
24685;SDS011;12804;51.176;4.452;2022-12-19T02:49:43;19.38;;;12.30;;
24685;SDS011;12804;51.176;4.452;2022-12-19T02:54:37;18.08;;;12.00;;
24685;SDS011;12804;51.176;4.452;2022-12-19T02:58:08;19.60;;;11.77;;
24685;SDS011;12804;51.176;4.452;2022-12-19T03:08:09;18.13;;;11.55;;
24685;SDS011;12804;51.176;4.452;2022-12-19T03:10:48;17.10;;;11.43;;
24685;SDS011;12804;51.176;4.452;2022-12-19T03:13:30;19.10;;;11.00;;
24685;SDS011;12804;51.176;4.452;2022-12-19T03:16:03;17.95;;;11.07;;
24685;SDS011;12804;51.176;4.452;2022-12-19T03:18:33;15.20;;;9.80;;
24685;SDS011;12804;51.176;4.452;2022-12-19T03:23:40;17.23;;;11.02;;
24685;SDS011;12804;51.176;4.452;2022-12-19T03:26:11;16.30;;;11.43;;
24685;SDS011;12804;51.176;4.452;2022-12-19T03:32:02;18.70;;;12.35;;
24685;SDS011;12804;51.176;4.452;2022-12-19T03:34:35;16.42;;;10.73;;
24685;SDS011;12804;51.176;4.452;2022-12-19T03:37:13;18.85;;;11.73;;
24685;SDS011;12804;51.176;4.452;2022-12-19T03:39:41;18.50;;;11.60;;
24685;SDS011;12804;51.176;4.452;2022-12-19T03:42:10;15.05;;;11.15;;
24685;SDS011;12804;51.176;4.452;2022-12-19T03:44:57;18.35;;;11.25;;
24685;SDS011;12804;51.176;4.452;2022-12-19T03:47:27;21.52;;;11.73;;
24685;SDS011;12804;51.176;4.452;2022-12-19T03:50:02;16.42;;;11.35;;
24685;SDS011;12804;51.176;4.452;2022-12-19T03:52:38;17.92;;;11.60;;
24685;SDS011;12804;51.176;4.452;2022-12-19T03:55:15;17.20;;;11.60;;
24685;SDS011;12804;51.176;4.452;2022-12-19T04:00:21;17.85;;;11.75;;
24685;SDS011;12804;51.176;4.452;2022-12-19T04:02:50;19.80;;;12.30;;
24685;SDS011;12804;51.176;4.452;2022-12-19T04:05:20;18.67;;;11.93;;
24685;SDS011;12804;51.176;4.452;2022-12-19T04:07:48;17.60;;;11.65;;
24685;SDS011;12804;51.176;4.452;2022-12-19T04:10:17;16.75;;;11.57;;
24685;SDS011;12804;51.176;4.452;2022-12-19T04:13:05;17.70;;;11.50;;
24685;SDS011;12804;51.176;4.452;2022-12-19T04:18:26;15.65;;;10.75;;
24685;SDS011;12804;51.176;4.452;2022-12-19T04:21:00;16.30;;;11.10;;
24685;SDS011;12804;51.176;4.452;2022-12-19T04:23:36;17.58;;;10.43;;
24685;SDS011;12804;51.176;4.452;2022-12-19T04:26:05;19.23;;;10.15;;
24685;SDS011;12804;51.176;4.452;2022-12-19T04:28:52;17.70;;;10.00;;
24685;SDS011;12804;51.176;4.452;2022-12-19T04:31:21;13.13;;;9.73;;
24685;SDS011;12804;51.176;4.452;2022-12-19T04:33:47;14.35;;;9.90;;
24685;SDS011;12804;51.176;4.452;2022-12-19T04:36:13;17.25;;;9.80;;
24685;SDS011;12804;51.176;4.452;2022-12-19T04:38:39;13.25;;;8.90;;
24685;SDS011;12804;51.176;4.452;2022-12-19T04:41:05;13.48;;;9.52;;
24685;SDS011;12804;51.176;4.452;2022-12-19T04:43:31;13.82;;;9.27;;
24685;SDS011;12804;51.176;4.452;2022-12-19T04:45:57;12.77;;;9.00;;
24685;SDS011;12804;51.176;4.452;2022-12-19T04:48:24;13.20;;;8.93;;
24685;SDS011;12804;51.176;4.452;2022-12-19T04:50:50;14.00;;;9.05;;
24685;SDS011;12804;51.176;4.452;2022-12-19T04:53:15;11.77;;;8.70;;
24685;SDS011;12804;51.176;4.452;2022-12-19T04:55:41;14.40;;;8.85;;
24685;SDS011;12804;51.176;4.452;2022-12-19T04:58:08;13.05;;;8.45;;
24685;SDS011;12804;51.176;4.452;2022-12-19T05:00:34;21.17;;;14.93;;
24685;SDS011;12804;51.176;4.452;2022-12-19T05:02:59;13.05;;;8.77;;
24685;SDS011;12804;51.176;4.452;2022-12-19T05:05:25;14.10;;;8.85;;
24685;SDS011;12804;51.176;4.452;2022-12-19T05:07:51;13.70;;;9.00;;
24685;SDS011;12804;51.176;4.452;2022-12-19T05:10:17;11.93;;;8.35;;
24685;SDS011;12804;51.176;4.452;2022-12-19T05:12:43;14.52;;;8.55;;
24685;SDS011;12804;51.176;4.452;2022-12-19T05:15:09;13.43;;;8.77;;
24685;SDS011;12804;51.176;4.452;2022-12-19T05:17:35;13.38;;;9.02;;
24685;SDS011;12804;51.176;4.452;2022-12-19T05:20:02;11.93;;;8.38;;
24685;SDS011;12804;51.176;4.452;2022-12-19T05:22:28;14.88;;;8.75;;
24685;SDS011;12804;51.176;4.452;2022-12-19T05:24:54;11.60;;;8.65;;
24685;SDS011;12804;51.176;4.452;2022-12-19T05:27:20;10.38;;;7.78;;
24685;SDS011;12804;51.176;4.452;2022-12-19T05:29:46;12.85;;;8.70;;
24685;SDS011;12804;51.176;4.452;2022-12-19T05:32:11;11.82;;;8.82;;
24685;SDS011;12804;51.176;4.452;2022-12-19T05:34:37;12.27;;;8.27;;
24685;SDS011;12804;51.176;4.452;2022-12-19T05:37:03;13.40;;;8.43;;
24685;SDS011;12804;51.176;4.452;2022-12-19T05:39:29;11.98;;;8.05;;
24685;SDS011;12804;51.176;4.452;2022-12-19T05:41:55;10.75;;;8.30;;
24685;SDS011;12804;51.176;4.452;2022-12-19T05:44:21;12.35;;;8.15;;
24685;SDS011;12804;51.176;4.452;2022-12-19T05:46:46;14.70;;;8.15;;
24685;SDS011;12804;51.176;4.452;2022-12-19T05:49:12;14.50;;;7.72;;
24685;SDS011;12804;51.176;4.452;2022-12-19T05:51:38;13.50;;;7.97;;
24685;SDS011;12804;51.176;4.452;2022-12-19T05:54:04;11.85;;;8.10;;
24685;SDS011;12804;51.176;4.452;2022-12-19T05:56:30;10.55;;;8.20;;
24685;SDS011;12804;51.176;4.452;2022-12-19T05:58:55;11.38;;;7.97;;
24685;SDS011;12804;51.176;4.452;2022-12-19T06:01:25;10.93;;;7.50;;
24685;SDS011;12804;51.176;4.452;2022-12-19T06:03:52;12.57;;;8.18;;
24685;SDS011;12804;51.176;4.452;2022-12-19T06:06:20;10.85;;;6.82;;
24685;SDS011;12804;51.176;4.452;2022-12-19T06:08:52;11.48;;;7.97;;
24685;SDS011;12804;51.176;4.452;2022-12-19T06:11:19;10.32;;;7.25;;
24685;SDS011;12804;51.176;4.452;2022-12-19T06:13:45;12.38;;;7.95;;
24685;SDS011;12804;51.176;4.452;2022-12-19T06:16:15;10.88;;;7.38;;
24685;SDS011;12804;51.176;4.452;2022-12-19T06:21:13;12.15;;;7.25;;
24685;SDS011;12804;51.176;4.452;2022-12-19T06:23:41;9.15;;;7.70;;
24685;SDS011;12804;51.176;4.452;2022-12-19T06:26:09;9.82;;;7.18;;
24685;SDS011;12804;51.176;4.452;2022-12-19T06:28:36;12.00;;;6.97;;
24685;SDS011;12804;51.176;4.452;2022-12-19T06:31:02;9.60;;;6.95;;
24685;SDS011;12804;51.176;4.452;2022-12-19T06:33:29;11.43;;;7.10;;
24685;SDS011;12804;51.176;4.452;2022-12-19T06:36:08;9.70;;;6.95;;
24685;SDS011;12804;51.176;4.452;2022-12-19T06:41:05;10.00;;;7.10;;
24685;SDS011;12804;51.176;4.452;2022-12-19T06:43:50;10.57;;;6.65;;
24685;SDS011;12804;51.176;4.452;2022-12-19T06:46:16;9.40;;;6.57;;
24685;SDS011;12804;51.176;4.452;2022-12-19T06:48:42;8.05;;;6.57;;
24685;SDS011;12804;51.176;4.452;2022-12-19T06:51:08;13.00;;;7.47;;
24685;SDS011;12804;51.176;4.452;2022-12-19T06:53:33;8.77;;;6.35;;
24685;SDS011;12804;51.176;4.452;2022-12-19T06:55:59;9.20;;;6.30;;
24685;SDS011;12804;51.176;4.452;2022-12-19T06:58:25;9.77;;;6.75;;
24685;SDS011;12804;51.176;4.452;2022-12-19T07:00:52;11.98;;;6.25;;
24685;SDS011;12804;51.176;4.452;2022-12-19T07:03:19;12.52;;;6.60;;
24685;SDS011;12804;51.176;4.452;2022-12-19T07:05:48;12.73;;;6.88;;
24685;SDS011;12804;51.176;4.452;2022-12-19T07:08:14;9.35;;;5.97;;
24685;SDS011;12804;51.176;4.452;2022-12-19T07:10:40;7.28;;;5.75;;
24685;SDS011;12804;51.176;4.452;2022-12-19T07:13:06;6.78;;;5.93;;
24685;SDS011;12804;51.176;4.452;2022-12-19T07:15:32;8.00;;;5.28;;
24685;SDS011;12804;51.176;4.452;2022-12-19T07:17:59;6.80;;;5.53;;
24685;SDS011;12804;51.176;4.452;2022-12-19T07:20:27;7.18;;;5.47;;
24685;SDS011;12804;51.176;4.452;2022-12-19T07:22:54;7.15;;;5.68;;
24685;SDS011;12804;51.176;4.452;2022-12-19T07:25:20;7.88;;;5.65;;
24685;SDS011;12804;51.176;4.452;2022-12-19T07:27:46;7.38;;;5.22;;
24685;SDS011;12804;51.176;4.452;2022-12-19T07:30:12;8.32;;;5.88;;
24685;SDS011;12804;51.176;4.452;2022-12-19T07:32:38;10.70;;;6.05;;
24685;SDS011;12804;51.176;4.452;2022-12-19T07:35:05;8.75;;;5.40;;
24685;SDS011;12804;51.176;4.452;2022-12-19T07:37:31;6.47;;;5.07;;
24685;SDS011;12804;51.176;4.452;2022-12-19T07:39:57;7.88;;;5.38;;
24685;SDS011;12804;51.176;4.452;2022-12-19T07:42:23;9.88;;;5.05;;
24685;SDS011;12804;51.176;4.452;2022-12-19T07:44:48;7.82;;;5.15;;
24685;SDS011;12804;51.176;4.452;2022-12-19T07:47:14;9.38;;;4.88;;
24685;SDS011;12804;51.176;4.452;2022-12-19T07:49:40;6.82;;;4.57;;
24685;SDS011;12804;51.176;4.452;2022-12-19T07:52:06;7.22;;;5.15;;
24685;SDS011;12804;51.176;4.452;2022-12-19T07:54:32;7.57;;;4.93;;
24685;SDS011;12804;51.176;4.452;2022-12-19T07:56:59;5.55;;;4.60;;
24685;SDS011;12804;51.176;4.452;2022-12-19T07:59:26;7.35;;;4.78;;
24685;SDS011;12804;51.176;4.452;2022-12-19T08:01:51;5.82;;;4.72;;
24685;SDS011;12804;51.176;4.452;2022-12-19T08:04:18;8.68;;;4.72;;
24685;SDS011;12804;51.176;4.452;2022-12-19T08:06:44;16.15;;;5.07;;
24685;SDS011;12804;51.176;4.452;2022-12-19T08:09:10;14.73;;;5.38;;
24685;SDS011;12804;51.176;4.452;2022-12-19T08:11:39;5.70;;;4.25;;
24685;SDS011;12804;51.176;4.452;2022-12-19T08:14:05;6.07;;;4.32;;
24685;SDS011;12804;51.176;4.452;2022-12-19T08:16:31;5.45;;;4.07;;
24685;SDS011;12804;51.176;4.452;2022-12-19T08:18:57;7.82;;;4.15;;
24685;SDS011;12804;51.176;4.452;2022-12-19T08:21:23;6.90;;;4.68;;
24685;SDS011;12804;51.176;4.452;2022-12-19T08:23:49;7.35;;;4.05;;
24685;SDS011;12804;51.176;4.452;2022-12-19T08:26:15;5.40;;;4.35;;
24685;SDS011;12804;51.176;4.452;2022-12-19T08:28:55;5.18;;;4.07;;
24685;SDS011;12804;51.176;4.452;2022-12-19T08:31:23;4.32;;;3.88;;
24685;SDS011;12804;51.176;4.452;2022-12-19T08:33:50;5.60;;;3.80;;
24685;SDS011;12804;51.176;4.452;2022-12-19T08:36:17;5.18;;;4.38;;
24685;SDS011;12804;51.176;4.452;2022-12-19T08:38:44;6.00;;;4.00;;
24685;SDS011;12804;51.176;4.452;2022-12-19T08:41:11;7.25;;;3.92;;
24685;SDS011;12804;51.176;4.452;2022-12-19T08:43:37;5.18;;;3.72;;
24685;SDS011;12804;51.176;4.452;2022-12-19T08:46:03;6.05;;;3.78;;
24685;SDS011;12804;51.176;4.452;2022-12-19T08:48:30;7.85;;;4.10;;
24685;SDS011;12804;51.176;4.452;2022-12-19T08:50:57;8.82;;;4.38;;
24685;SDS011;12804;51.176;4.452;2022-12-19T08:53:26;4.88;;;3.85;;
24685;SDS011;12804;51.176;4.452;2022-12-19T08:55:53;4.65;;;3.92;;
24685;SDS011;12804;51.176;4.452;2022-12-19T08:58:21;6.18;;;3.97;;
24685;SDS011;12804;51.176;4.452;2022-12-19T09:00:51;7.35;;;3.95;;
24685;SDS011;12804;51.176;4.452;2022-12-19T09:03:18;4.53;;;3.42;;
24685;SDS011;12804;51.176;4.452;2022-12-19T09:05:44;5.15;;;3.65;;
24685;SDS011;12804;51.176;4.452;2022-12-19T09:08:10;6.13;;;3.65;;
24685;SDS011;12804;51.176;4.452;2022-12-19T09:10:36;4.95;;;3.55;;
24685;SDS011;12804;51.176;4.452;2022-12-19T09:13:03;4.40;;;3.40;;
24685;SDS011;12804;51.176;4.452;2022-12-19T09:15:30;4.93;;;3.28;;
24685;SDS011;12804;51.176;4.452;2022-12-19T09:17:56;4.15;;;2.88;;
24685;SDS011;12804;51.176;4.452;2022-12-19T09:20:22;5.63;;;3.33;;
24685;SDS011;12804;51.176;4.452;2022-12-19T09:22:47;4.90;;;3.25;;
24685;SDS011;12804;51.176;4.452;2022-12-19T09:25:13;5.40;;;3.38;;
24685;SDS011;12804;51.176;4.452;2022-12-19T09:27:39;4.20;;;3.05;;
24685;SDS011;12804;51.176;4.452;2022-12-19T09:30:06;5.20;;;3.17;;
24685;SDS011;12804;51.176;4.452;2022-12-19T09:32:32;4.22;;;3.53;;
24685;SDS011;12804;51.176;4.452;2022-12-19T09:34:58;7.18;;;3.75;;
24685;SDS011;12804;51.176;4.452;2022-12-19T09:37:24;3.97;;;3.03;;
24685;SDS011;12804;51.176;4.452;2022-12-19T09:39:50;4.30;;;3.10;;
24685;SDS011;12804;51.176;4.452;2022-12-19T09:47:53;4.00;;;3.35;;
24685;SDS011;12804;51.176;4.452;2022-12-19T09:50:32;5.45;;;3.40;;
24685;SDS011;12804;51.176;4.452;2022-12-19T09:53:25;3.33;;;3.03;;
24685;SDS011;12804;51.176;4.452;2022-12-19T09:55:56;4.50;;;3.55;;
24685;SDS011;12804;51.176;4.452;2022-12-19T10:01:04;4.50;;;3.92;;
24685;SDS011;12804;51.176;4.452;2022-12-19T10:03:40;5.32;;;3.58;;
24685;SDS011;12804;51.176;4.452;2022-12-19T10:06:13;6.22;;;3.90;;
24685;SDS011;12804;51.176;4.452;2022-12-19T10:08:48;6.65;;;4.38;;
24685;SDS011;12804;51.176;4.452;2022-12-19T10:13:48;5.78;;;4.63;;
24685;SDS011;12804;51.176;4.452;2022-12-19T10:16:20;5.60;;;4.72;;
24685;SDS011;12804;51.176;4.452;2022-12-19T10:19:22;6.50;;;4.80;;
24685;SDS011;12804;51.176;4.452;2022-12-19T10:22:00;6.20;;;4.43;;
24685;SDS011;12804;51.176;4.452;2022-12-19T10:27:43;6.18;;;4.55;;
24685;SDS011;12804;51.176;4.452;2022-12-19T10:30:20;7.50;;;4.90;;
24685;SDS011;12804;51.176;4.452;2022-12-19T10:35:44;11.07;;;3.95;;
24685;SDS011;12804;51.176;4.452;2022-12-19T10:40:42;5.03;;;4.03;;
24685;SDS011;12804;51.176;4.452;2022-12-19T10:45:47;4.32;;;3.67;;
24685;SDS011;12804;51.176;4.452;2022-12-19T10:48:17;5.15;;;3.90;;
24685;SDS011;12804;51.176;4.452;2022-12-19T10:50:44;5.00;;;3.78;;
24685;SDS011;12804;51.176;4.452;2022-12-19T10:53:11;5.30;;;3.83;;
24685;SDS011;12804;51.176;4.452;2022-12-19T11:03:38;5.15;;;3.60;;
24685;SDS011;12804;51.176;4.452;2022-12-19T11:11:47;5.60;;;3.55;;
24685;SDS011;12804;51.176;4.452;2022-12-19T11:14:24;6.25;;;3.60;;
24685;SDS011;12804;51.176;4.452;2022-12-19T11:16:52;4.13;;;3.40;;
24685;SDS011;12804;51.176;4.452;2022-12-19T11:19:19;4.25;;;3.33;;
24685;SDS011;12804;51.176;4.452;2022-12-19T11:21:59;5.35;;;3.00;;
24685;SDS011;12804;51.176;4.452;2022-12-19T11:24:51;4.18;;;3.15;;
24685;SDS011;12804;51.176;4.452;2022-12-19T11:27:29;3.75;;;2.70;;
24685;SDS011;12804;51.176;4.452;2022-12-19T11:30:07;4.85;;;2.65;;
24685;SDS011;12804;51.176;4.452;2022-12-19T11:32:43;4.85;;;2.60;;
24685;SDS011;12804;51.176;4.452;2022-12-19T11:35:21;3.35;;;2.58;;
24685;SDS011;12804;51.176;4.452;2022-12-19T11:38:00;2.85;;;2.55;;
24685;SDS011;12804;51.176;4.452;2022-12-19T11:40:47;3.88;;;2.40;;
24685;SDS011;12804;51.176;4.452;2022-12-19T11:43:29;4.90;;;2.97;;
24685;SDS011;12804;51.176;4.452;2022-12-19T11:51:08;7.00;;;2.45;;
24685;SDS011;12804;51.176;4.452;2022-12-19T11:56:44;2.97;;;2.13;;
24685;SDS011;12804;51.176;4.452;2022-12-19T11:59:19;3.40;;;2.10;;
24685;SDS011;12804;51.176;4.452;2022-12-19T12:05:08;3.40;;;2.15;;
24685;SDS011;12804;51.176;4.452;2022-12-19T12:11:09;3.67;;;2.60;;
24685;SDS011;12804;51.176;4.452;2022-12-19T12:16:12;2.88;;;2.47;;
24685;SDS011;12804;51.176;4.452;2022-12-19T12:24:54;2.42;;;2.00;;
24685;SDS011;12804;51.176;4.452;2022-12-19T12:30:16;3.95;;;2.22;;
24685;SDS011;12804;51.176;4.452;2022-12-19T12:32:58;3.27;;;2.27;;
24685;SDS011;12804;51.176;4.452;2022-12-19T12:35:38;4.40;;;2.78;;
24685;SDS011;12804;51.176;4.452;2022-12-19T12:38:19;4.47;;;2.53;;
24685;SDS011;12804;51.176;4.452;2022-12-19T12:46:18;4.60;;;2.30;;
24685;SDS011;12804;51.176;4.452;2022-12-19T12:48:52;5.78;;;2.30;;
24685;SDS011;12804;51.176;4.452;2022-12-19T12:51:23;5.07;;;2.30;;
24685;SDS011;12804;51.176;4.452;2022-12-19T12:53:52;3.40;;;2.22;;
24685;SDS011;12804;51.176;4.452;2022-12-19T12:56:38;3.13;;;2.03;;
24685;SDS011;12804;51.176;4.452;2022-12-19T12:59:18;3.95;;;2.30;;
24685;SDS011;12804;51.176;4.452;2022-12-19T13:01:47;2.75;;;2.05;;
24685;SDS011;12804;51.176;4.452;2022-12-19T13:04:25;2.97;;;2.38;;
24685;SDS011;12804;51.176;4.452;2022-12-19T13:09:44;2.85;;;2.25;;
24685;SDS011;12804;51.176;4.452;2022-12-19T13:12:26;4.78;;;2.60;;
24685;SDS011;12804;51.176;4.452;2022-12-19T13:15:25;2.90;;;2.22;;
24685;SDS011;12804;51.176;4.452;2022-12-19T13:27:59;3.55;;;2.20;;
24685;SDS011;12804;51.176;4.452;2022-12-19T13:39:31;3.25;;;2.15;;
24685;SDS011;12804;51.176;4.452;2022-12-19T13:42:13;3.63;;;2.30;;
24685;SDS011;12804;51.176;4.452;2022-12-19T13:45:12;3.08;;;2.00;;
24685;SDS011;12804;51.176;4.452;2022-12-19T13:47:56;2.35;;;2.00;;
24685;SDS011;12804;51.176;4.452;2022-12-19T13:50:37;3.50;;;2.10;;
24685;SDS011;12804;51.176;4.452;2022-12-19T13:53:08;2.95;;;2.20;;
24685;SDS011;12804;51.176;4.452;2022-12-19T13:55:42;3.17;;;1.88;;
24685;SDS011;12804;51.176;4.452;2022-12-19T13:58:26;4.25;;;2.00;;
24685;SDS011;12804;51.176;4.452;2022-12-19T14:00:54;2.15;;;1.80;;
24685;SDS011;12804;51.176;4.452;2022-12-19T14:03:39;4.35;;;2.40;;
24685;SDS011;12804;51.176;4.452;2022-12-19T14:06:09;3.50;;;2.25;;
24685;SDS011;12804;51.176;4.452;2022-12-19T14:08:46;5.00;;;2.35;;
24685;SDS011;12804;51.176;4.452;2022-12-19T14:11:16;3.20;;;2.28;;
24685;SDS011;12804;51.176;4.452;2022-12-19T14:16:36;3.30;;;2.25;;
24685;SDS011;12804;51.176;4.452;2022-12-19T14:19:02;4.07;;;2.10;;
24685;SDS011;12804;51.176;4.452;2022-12-19T14:21:28;4.15;;;2.03;;
24685;SDS011;12804;51.176;4.452;2022-12-19T14:24:14;2.00;;;1.77;;
24685;SDS011;12804;51.176;4.452;2022-12-19T14:26:42;2.67;;;2.00;;
24685;SDS011;12804;51.176;4.452;2022-12-19T14:31:51;4.47;;;1.98;;
24685;SDS011;12804;51.176;4.452;2022-12-19T14:34:22;4.68;;;2.33;;
24685;SDS011;12804;51.176;4.452;2022-12-19T14:36:52;3.80;;;2.05;;
24685;SDS011;12804;51.176;4.452;2022-12-19T14:39:21;2.78;;;1.95;;
24685;SDS011;12804;51.176;4.452;2022-12-19T14:42:04;3.97;;;2.10;;
24685;SDS011;12804;51.176;4.452;2022-12-19T14:44:54;4.63;;;2.47;;
24685;SDS011;12804;51.176;4.452;2022-12-19T14:47:22;3.00;;;2.30;;
24685;SDS011;12804;51.176;4.452;2022-12-19T14:49:49;4.15;;;2.45;;
24685;SDS011;12804;51.176;4.452;2022-12-19T14:52:33;3.55;;;2.30;;
24685;SDS011;12804;51.176;4.452;2022-12-19T14:55:24;4.25;;;2.55;;
24685;SDS011;12804;51.176;4.452;2022-12-19T14:57:52;4.07;;;2.20;;
24685;SDS011;12804;51.176;4.452;2022-12-19T15:00:25;3.88;;;2.30;;
24685;SDS011;12804;51.176;4.452;2022-12-19T15:02:54;4.85;;;2.30;;
24685;SDS011;12804;51.176;4.452;2022-12-19T15:05:21;2.90;;;2.08;;
24685;SDS011;12804;51.176;4.452;2022-12-19T15:07:51;3.75;;;2.10;;
24685;SDS011;12804;51.176;4.452;2022-12-19T15:10:21;2.38;;;2.15;;
24685;SDS011;12804;51.176;4.452;2022-12-19T15:13:21;2.75;;;2.17;;
24685;SDS011;12804;51.176;4.452;2022-12-19T15:15:52;3.47;;;2.72;;
24685;SDS011;12804;51.176;4.452;2022-12-19T15:21:08;3.92;;;2.60;;
24685;SDS011;12804;51.176;4.452;2022-12-19T15:23:36;4.47;;;2.20;;
24685;SDS011;12804;51.176;4.452;2022-12-19T15:26:04;4.72;;;2.20;;
24685;SDS011;12804;51.176;4.452;2022-12-19T15:31:18;4.72;;;2.75;;
24685;SDS011;12804;51.176;4.452;2022-12-19T15:33:57;4.45;;;3.25;;
24685;SDS011;12804;51.176;4.452;2022-12-19T15:36:23;4.22;;;2.60;;
24685;SDS011;12804;51.176;4.452;2022-12-19T15:38:49;4.03;;;2.33;;
24685;SDS011;12804;51.176;4.452;2022-12-19T15:41:15;4.80;;;2.40;;
24685;SDS011;12804;51.176;4.452;2022-12-19T15:43:47;5.35;;;3.13;;
24685;SDS011;12804;51.176;4.452;2022-12-19T15:46:14;4.85;;;2.80;;
24685;SDS011;12804;51.176;4.452;2022-12-19T15:48:41;4.13;;;3.20;;
24685;SDS011;12804;51.176;4.452;2022-12-19T15:51:13;3.88;;;2.50;;
24685;SDS011;12804;51.176;4.452;2022-12-19T15:53:41;4.07;;;2.40;;
24685;SDS011;12804;51.176;4.452;2022-12-19T15:56:13;3.40;;;2.80;;
24685;SDS011;12804;51.176;4.452;2022-12-19T15:58:48;5.32;;;2.63;;
24685;SDS011;12804;51.176;4.452;2022-12-19T16:01:15;2.70;;;2.50;;
24685;SDS011;12804;51.176;4.452;2022-12-19T16:03:41;2.88;;;2.25;;
24685;SDS011;12804;51.176;4.452;2022-12-19T16:06:11;4.55;;;2.33;;
24685;SDS011;12804;51.176;4.452;2022-12-19T16:08:37;4.70;;;2.80;;
24685;SDS011;12804;51.176;4.452;2022-12-19T16:11:04;3.38;;;2.70;;
24685;SDS011;12804;51.176;4.452;2022-12-19T16:13:31;6.70;;;2.60;;
24685;SDS011;12804;51.176;4.452;2022-12-19T16:16:01;3.78;;;2.67;;
24685;SDS011;12804;51.176;4.452;2022-12-19T16:18:28;3.42;;;2.40;;
24685;SDS011;12804;51.176;4.452;2022-12-19T16:20:54;4.55;;;2.72;;
24685;SDS011;12804;51.176;4.452;2022-12-19T16:23:21;4.72;;;2.85;;
24685;SDS011;12804;51.176;4.452;2022-12-19T16:25:49;3.78;;;2.67;;
24685;SDS011;12804;51.176;4.452;2022-12-19T16:28:24;3.33;;;2.60;;
24685;SDS011;12804;51.176;4.452;2022-12-19T16:30:57;3.35;;;2.47;;
24685;SDS011;12804;51.176;4.452;2022-12-19T16:33:27;4.88;;;2.40;;
24685;SDS011;12804;51.176;4.452;2022-12-19T16:35:55;4.32;;;2.38;;
24685;SDS011;12804;51.176;4.452;2022-12-19T16:38:21;7.30;;;2.50;;
24685;SDS011;12804;51.176;4.452;2022-12-19T16:40:48;5.28;;;2.67;;
24685;SDS011;12804;51.176;4.452;2022-12-19T16:43:23;5.05;;;2.42;;
24685;SDS011;12804;51.176;4.452;2022-12-19T16:46:01;4.55;;;2.90;;
24685;SDS011;12804;51.176;4.452;2022-12-19T16:48:30;3.90;;;3.08;;
24685;SDS011;12804;51.176;4.452;2022-12-19T16:50:57;5.20;;;2.70;;
24685;SDS011;12804;51.176;4.452;2022-12-19T16:53:23;7.65;;;4.03;;
24685;SDS011;12804;51.176;4.452;2022-12-19T16:55:49;9.55;;;4.30;;
24685;SDS011;12804;51.176;4.452;2022-12-19T16:58:18;6.00;;;3.10;;
24685;SDS011;12804;51.176;4.452;2022-12-19T17:00:48;4.82;;;2.72;;
24685;SDS011;12804;51.176;4.452;2022-12-19T17:03:27;3.53;;;2.88;;
24685;SDS011;12804;51.176;4.452;2022-12-19T17:06:14;5.05;;;2.90;;
24685;SDS011;12804;51.176;4.452;2022-12-19T17:08:42;2.97;;;2.35;;
24685;SDS011;12804;51.176;4.452;2022-12-19T17:11:30;4.22;;;2.67;;
24685;SDS011;12804;51.176;4.452;2022-12-19T17:14:05;4.93;;;2.90;;
24685;SDS011;12804;51.176;4.452;2022-12-19T17:16:37;3.97;;;3.10;;
24685;SDS011;12804;51.176;4.452;2022-12-19T17:19:03;5.05;;;3.20;;
24685;SDS011;12804;51.176;4.452;2022-12-19T17:21:29;4.38;;;3.00;;
24685;SDS011;12804;51.176;4.452;2022-12-19T17:23:55;4.53;;;3.28;;
24685;SDS011;12804;51.176;4.452;2022-12-19T17:26:20;4.32;;;2.50;;
24685;SDS011;12804;51.176;4.452;2022-12-19T17:28:46;3.05;;;2.45;;
24685;SDS011;12804;51.176;4.452;2022-12-19T17:31:23;5.75;;;2.70;;